sensor_id;sensor_type;location;lat;lon;timestamp;pressure;altitude;pressure_sealevel;temperature;humidity
64115;BME280;62188;35.640;139.748;2023-12-22T00:01:38;101737.70;;;12.36;17.47
64115;BME280;62188;35.640;139.748;2023-12-22T00:04:03;101729.89;;;12.48;17.90
64115;BME280;62188;35.640;139.748;2023-12-22T00:06:28;101736.15;;;11.53;17.56
64115;BME280;62188;35.640;139.748;2023-12-22T00:08:54;101735.17;;;11.66;17.49
64115;BME280;62188;35.640;139.748;2023-12-22T00:11:20;101736.16;;;12.32;17.51
64115;BME280;62188;35.640;139.748;2023-12-22T00:13:45;101736.18;;;12.03;18.22
64115;BME280;62188;35.640;139.748;2023-12-22T00:16:12;101737.68;;;12.67;17.82
64115;BME280;62188;35.640;139.748;2023-12-22T00:18:37;101737.27;;;12.85;17.73
64115;BME280;62188;35.640;139.748;2023-12-22T00:21:02;101735.51;;;12.87;16.74
64115;BME280;62188;35.640;139.748;2023-12-22T00:23:29;101729.40;;;13.17;16.72
64115;BME280;62188;35.640;139.748;2023-12-22T00:25:54;101730.62;;;13.46;16.78
64115;BME280;62188;35.640;139.748;2023-12-22T00:28:19;101732.07;;;13.20;16.75
64115;BME280;62188;35.640;139.748;2023-12-22T00:30:45;101729.02;;;13.72;16.91
64115;BME280;62188;35.640;139.748;2023-12-22T00:33:10;101730.55;;;13.90;16.26
64115;BME280;62188;35.640;139.748;2023-12-22T00:35:36;101727.43;;;14.03;16.37
64115;BME280;62188;35.640;139.748;2023-12-22T00:38:03;101728.10;;;14.58;16.16
64115;BME280;62188;35.640;139.748;2023-12-22T00:40:28;101721.80;;;14.93;15.76
64115;BME280;62188;35.640;139.748;2023-12-22T00:42:52;101719.69;;;15.14;15.55
64115;BME280;62188;35.640;139.748;2023-12-22T00:45:18;101722.43;;;15.45;15.80
64115;BME280;62188;35.640;139.748;2023-12-22T00:47:44;101717.41;;;15.74;15.79
64115;BME280;62188;35.640;139.748;2023-12-22T00:50:11;101714.79;;;15.42;14.78
64115;BME280;62188;35.640;139.748;2023-12-22T00:52:35;101716.44;;;15.62;14.83
64115;BME280;62188;35.640;139.748;2023-12-22T00:55:01;101712.69;;;15.59;14.59
64115;BME280;62188;35.640;139.748;2023-12-22T00:57:26;101713.03;;;15.77;14.47
64115;BME280;62188;35.640;139.748;2023-12-22T00:59:52;101708.50;;;13.71;15.18
64115;BME280;62188;35.640;139.748;2023-12-22T01:02:18;101703.79;;;13.58;15.68
64115;BME280;62188;35.640;139.748;2023-12-22T01:04:43;101708.77;;;12.51;16.39
64115;BME280;62188;35.640;139.748;2023-12-22T01:07:09;101705.45;;;13.62;15.65
64115;BME280;62188;35.640;139.748;2023-12-22T01:09:34;101704.59;;;13.84;15.37
64115;BME280;62188;35.640;139.748;2023-12-22T01:12:00;101700.33;;;12.89;14.78
64115;BME280;62188;35.640;139.748;2023-12-22T01:14:25;101694.81;;;13.39;15.31
64115;BME280;62188;35.640;139.748;2023-12-22T01:16:52;101695.28;;;12.37;15.41
64115;BME280;62188;35.640;139.748;2023-12-22T01:19:17;101690.93;;;13.68;14.93
64115;BME280;62188;35.640;139.748;2023-12-22T01:21:42;101689.09;;;13.31;14.92
64115;BME280;62188;35.640;139.748;2023-12-22T01:24:08;101675.92;;;13.83;15.12
64115;BME280;62188;35.640;139.748;2023-12-22T01:26:33;101669.87;;;13.75;15.54
64115;BME280;62188;35.640;139.748;2023-12-22T01:29:01;101670.87;;;13.78;15.46
64115;BME280;62188;35.640;139.748;2023-12-22T01:31:24;101671.01;;;12.70;16.43
64115;BME280;62188;35.640;139.748;2023-12-22T01:33:50;101670.74;;;13.50;16.28
64115;BME280;62188;35.640;139.748;2023-12-22T01:36:16;101669.47;;;13.55;16.25
64115;BME280;62188;35.640;139.748;2023-12-22T01:38:42;101654.40;;;13.68;16.44
64115;BME280;62188;35.640;139.748;2023-12-22T01:41:07;101653.64;;;12.70;16.70
64115;BME280;62188;35.640;139.748;2023-12-22T01:43:33;101648.84;;;12.23;17.37
64115;BME280;62188;35.640;139.748;2023-12-22T01:46:00;101637.13;;;12.51;17.29
64115;BME280;62188;35.640;139.748;2023-12-22T01:48:26;101631.36;;;13.31;16.82
64115;BME280;62188;35.640;139.748;2023-12-22T01:50:50;101623.76;;;13.29;17.17
64115;BME280;62188;35.640;139.748;2023-12-22T01:53:16;101619.65;;;14.29;16.64
64115;BME280;62188;35.640;139.748;2023-12-22T01:55:41;101620.13;;;14.99;16.44
64115;BME280;62188;35.640;139.748;2023-12-22T01:58:06;101616.71;;;14.26;16.54
64115;BME280;62188;35.640;139.748;2023-12-22T02:00:32;101610.76;;;14.59;16.53
64115;BME280;62188;35.640;139.748;2023-12-22T02:02:59;101611.63;;;13.52;17.06
64115;BME280;62188;35.640;139.748;2023-12-22T02:05:25;101608.00;;;13.48;17.04
64115;BME280;62188;35.640;139.748;2023-12-22T02:07:48;101609.71;;;11.95;18.34
64115;BME280;62188;35.640;139.748;2023-12-22T02:10:16;101600.74;;;13.04;18.27
64115;BME280;62188;35.640;139.748;2023-12-22T02:12:40;101596.31;;;12.71;18.67
64115;BME280;62188;35.640;139.748;2023-12-22T02:15:09;101592.17;;;14.07;18.14
64115;BME280;62188;35.640;139.748;2023-12-22T02:17:39;101587.45;;;13.76;18.23
64115;BME280;62188;35.640;139.748;2023-12-22T02:19:58;101585.80;;;15.02;17.83
64115;BME280;62188;35.640;139.748;2023-12-22T02:22:23;101581.84;;;14.18;17.77
64115;BME280;62188;35.640;139.748;2023-12-22T02:24:49;101576.68;;;13.85;18.32
64115;BME280;62188;35.640;139.748;2023-12-22T02:27:22;101567.05;;;14.78;18.15
64115;BME280;62188;35.640;139.748;2023-12-22T02:29:43;101560.83;;;15.54;17.61
64115;BME280;62188;35.640;139.748;2023-12-22T02:32:12;101556.87;;;15.41;17.57
64115;BME280;62188;35.640;139.748;2023-12-22T02:34:32;101542.97;;;14.55;17.63
64115;BME280;62188;35.640;139.748;2023-12-22T02:36:56;101544.43;;;15.22;17.60
64115;BME280;62188;35.640;139.748;2023-12-22T02:39:22;101541.25;;;14.81;17.41
64115;BME280;62188;35.640;139.748;2023-12-22T02:41:47;101533.91;;;15.74;16.75
64115;BME280;62188;35.640;139.748;2023-12-22T02:44:12;101527.04;;;16.09;17.48
64115;BME280;62188;35.640;139.748;2023-12-22T02:46:38;101525.06;;;16.25;16.83
64115;BME280;62188;35.640;139.748;2023-12-22T02:49:03;101514.43;;;16.89;16.36
64115;BME280;62188;35.640;139.748;2023-12-22T02:51:30;101507.11;;;14.55;17.99
64115;BME280;62188;35.640;139.748;2023-12-22T02:53:54;101501.15;;;14.59;18.60
64115;BME280;62188;35.640;139.748;2023-12-22T02:56:21;101493.79;;;15.23;18.19
64115;BME280;62188;35.640;139.748;2023-12-22T02:58:46;101489.16;;;16.49;17.59
64115;BME280;62188;35.640;139.748;2023-12-22T03:01:11;101483.29;;;17.30;17.16
64115;BME280;62188;35.640;139.748;2023-12-22T03:03:36;101481.36;;;15.84;16.38
64115;BME280;62188;35.640;139.748;2023-12-22T03:06:04;101477.30;;;16.97;16.40
64115;BME280;62188;35.640;139.748;2023-12-22T03:08:28;101472.40;;;17.67;16.04
64115;BME280;62188;35.640;139.748;2023-12-22T03:10:54;101464.12;;;17.43;16.10
64115;BME280;62188;35.640;139.748;2023-12-22T03:13:20;101458.19;;;18.23;15.44
64115;BME280;62188;35.640;139.748;2023-12-22T03:15:44;101458.68;;;18.73;15.36
64115;BME280;62188;35.640;139.748;2023-12-22T03:18:10;101465.29;;;17.44;15.78
64115;BME280;62188;35.640;139.748;2023-12-22T03:20:35;101466.09;;;17.10;15.69
64115;BME280;62188;35.640;139.748;2023-12-22T03:23:01;101460.10;;;16.99;16.30
64115;BME280;62188;35.640;139.748;2023-12-22T03:25:26;101443.32;;;17.89;16.10
64115;BME280;62188;35.640;139.748;2023-12-22T03:27:52;101443.51;;;17.03;16.74
64115;BME280;62188;35.640;139.748;2023-12-22T03:30:17;101444.14;;;17.35;16.28
64115;BME280;62188;35.640;139.748;2023-12-22T03:32:44;101441.24;;;16.25;16.83
64115;BME280;62188;35.640;139.748;2023-12-22T03:35:10;101441.39;;;15.63;17.47
64115;BME280;62188;35.640;139.748;2023-12-22T03:37:34;101436.35;;;14.09;18.47
64115;BME280;62188;35.640;139.748;2023-12-22T03:40:00;101427.70;;;13.02;19.04
64115;BME280;62188;35.640;139.748;2023-12-22T03:42:25;101421.40;;;12.59;19.81
64115;BME280;62188;35.640;139.748;2023-12-22T03:44:50;101420.81;;;12.64;20.09
64115;BME280;62188;35.640;139.748;2023-12-22T03:47:16;101414.73;;;11.73;20.93
64115;BME280;62188;35.640;139.748;2023-12-22T03:49:42;101408.27;;;10.70;22.29
64115;BME280;62188;35.640;139.748;2023-12-22T03:52:08;101402.18;;;10.14;22.86
64115;BME280;62188;35.640;139.748;2023-12-22T03:54:33;101397.71;;;10.62;22.51
64115;BME280;62188;35.640;139.748;2023-12-22T03:56:59;101403.47;;;10.98;22.87
64115;BME280;62188;35.640;139.748;2023-12-22T03:59:24;101391.23;;;10.25;23.04
64115;BME280;62188;35.640;139.748;2023-12-22T04:01:52;101392.70;;;10.45;23.17
64115;BME280;62188;35.640;139.748;2023-12-22T04:04:16;101392.10;;;10.67;22.49
64115;BME280;62188;35.640;139.748;2023-12-22T04:06:42;101386.03;;;10.12;22.92
64115;BME280;62188;35.640;139.748;2023-12-22T04:09:09;101377.95;;;10.61;22.91
64115;BME280;62188;35.640;139.748;2023-12-22T04:11:33;101374.77;;;10.59;22.97
64115;BME280;62188;35.640;139.748;2023-12-22T04:13:59;101369.94;;;8.91;23.90
64115;BME280;62188;35.640;139.748;2023-12-22T04:16:26;101361.12;;;8.86;24.71
64115;BME280;62188;35.640;139.748;2023-12-22T04:18:50;101357.97;;;8.80;24.62
64115;BME280;62188;35.640;139.748;2023-12-22T04:21:16;101357.09;;;10.52;23.95
64115;BME280;62188;35.640;139.748;2023-12-22T04:23:41;101352.69;;;12.11;22.11
64115;BME280;62188;35.640;139.748;2023-12-22T04:26:07;101354.71;;;13.89;20.14
64115;BME280;62188;35.640;139.748;2023-12-22T04:28:34;101353.81;;;15.40;18.94
64115;BME280;62188;35.640;139.748;2023-12-22T04:30:59;101346.57;;;16.15;18.16
64115;BME280;62188;35.640;139.748;2023-12-22T04:33:24;101340.55;;;15.98;17.71
64115;BME280;62188;35.640;139.748;2023-12-22T04:35:49;101336.51;;;17.15;17.09
64115;BME280;62188;35.640;139.748;2023-12-22T04:38:15;101334.42;;;18.83;16.53
64115;BME280;62188;35.640;139.748;2023-12-22T04:40:40;101327.84;;;19.89;15.16
64115;BME280;62188;35.640;139.748;2023-12-22T04:43:08;101331.51;;;20.17;13.75
64115;BME280;62188;35.640;139.748;2023-12-22T04:45:30;101333.16;;;19.56;13.17
64115;BME280;62188;35.640;139.748;2023-12-22T04:47:56;101329.57;;;20.16;13.50
64115;BME280;62188;35.640;139.748;2023-12-22T04:50:21;101332.04;;;20.39;13.39
64115;BME280;62188;35.640;139.748;2023-12-22T04:52:47;101332.60;;;19.15;14.15
64115;BME280;62188;35.640;139.748;2023-12-22T04:55:13;101337.88;;;18.50;14.22
64115;BME280;62188;35.640;139.748;2023-12-22T04:57:41;101338.37;;;16.20;15.48
64115;BME280;62188;35.640;139.748;2023-12-22T05:00:04;101335.27;;;15.46;16.24
64115;BME280;62188;35.640;139.748;2023-12-22T05:02:30;101344.78;;;14.57;16.73
64115;BME280;62188;35.640;139.748;2023-12-22T05:04:54;101338.93;;;13.30;18.02
64115;BME280;62188;35.640;139.748;2023-12-22T05:07:21;101354.32;;;13.41;18.33
64115;BME280;62188;35.640;139.748;2023-12-22T05:09:45;101349.87;;;13.06;18.72
64115;BME280;62188;35.640;139.748;2023-12-22T05:12:11;101343.67;;;12.82;19.53
64115;BME280;62188;35.640;139.748;2023-12-22T05:14:38;101352.91;;;13.31;19.60
64115;BME280;62188;35.640;139.748;2023-12-22T05:17:03;101352.11;;;13.00;19.52
64115;BME280;62188;35.640;139.748;2023-12-22T05:19:31;101354.19;;;12.85;19.83
64115;BME280;62188;35.640;139.748;2023-12-22T05:21:54;101363.71;;;12.80;20.06
64115;BME280;62188;35.640;139.748;2023-12-22T05:24:19;101360.74;;;11.17;20.48
64115;BME280;62188;35.640;139.748;2023-12-22T05:26:46;101362.55;;;11.47;20.49
64115;BME280;62188;35.640;139.748;2023-12-22T05:29:10;101374.96;;;10.04;21.04
64115;BME280;62188;35.640;139.748;2023-12-22T05:31:36;101376.61;;;10.43;21.19
64115;BME280;62188;35.640;139.748;2023-12-22T05:34:02;101369.28;;;10.79;21.26
64115;BME280;62188;35.640;139.748;2023-12-22T05:36:27;101368.13;;;10.87;21.21
64115;BME280;62188;35.640;139.748;2023-12-22T05:38:53;101383.69;;;10.28;21.37
64115;BME280;62188;35.640;139.748;2023-12-22T05:41:18;101375.34;;;10.42;21.39
64115;BME280;62188;35.640;139.748;2023-12-22T05:43:44;101375.17;;;9.92;21.12
64115;BME280;62188;35.640;139.748;2023-12-22T05:46:10;101373.69;;;10.50;21.10
64115;BME280;62188;35.640;139.748;2023-12-22T05:48:35;101380.24;;;10.97;20.91
64115;BME280;62188;35.640;139.748;2023-12-22T05:51:01;101376.92;;;10.39;20.66
64115;BME280;62188;35.640;139.748;2023-12-22T05:53:27;101372.01;;;10.66;20.90
64115;BME280;62188;35.640;139.748;2023-12-22T05:55:53;101378.95;;;10.76;21.43
64115;BME280;62188;35.640;139.748;2023-12-22T05:58:19;101376.86;;;11.28;20.68
64115;BME280;62188;35.640;139.748;2023-12-22T06:00:45;101374.68;;;10.49;20.48
64115;BME280;62188;35.640;139.748;2023-12-22T06:03:10;101370.10;;;10.97;20.35
64115;BME280;62188;35.640;139.748;2023-12-22T06:05:34;101379.99;;;10.96;20.03
64115;BME280;62188;35.640;139.748;2023-12-22T06:08:00;101376.24;;;10.77;20.29
64115;BME280;62188;35.640;139.748;2023-12-22T06:10:28;101378.72;;;10.45;20.39
64115;BME280;62188;35.640;139.748;2023-12-22T06:12:53;101379.29;;;10.92;19.98
64115;BME280;62188;35.640;139.748;2023-12-22T06:15:19;101380.38;;;10.34;20.66
64115;BME280;62188;35.640;139.748;2023-12-22T06:17:43;101376.48;;;10.46;20.72
64115;BME280;62188;35.640;139.748;2023-12-22T06:20:10;101379.55;;;10.77;20.64
64115;BME280;62188;35.640;139.748;2023-12-22T06:22:34;101384.16;;;10.68;20.66
64115;BME280;62188;35.640;139.748;2023-12-22T06:25:00;101381.85;;;10.63;20.31
64115;BME280;62188;35.640;139.748;2023-12-22T06:27:26;101378.59;;;10.82;20.34
64115;BME280;62188;35.640;139.748;2023-12-22T06:29:52;101380.61;;;10.85;19.94
64115;BME280;62188;35.640;139.748;2023-12-22T06:32:17;101385.41;;;10.91;19.51
64115;BME280;62188;35.640;139.748;2023-12-22T06:34:44;101386.03;;;10.44;19.40
64115;BME280;62188;35.640;139.748;2023-12-22T06:37:08;101390.09;;;10.71;19.61
64115;BME280;62188;35.640;139.748;2023-12-22T06:39:34;101399.21;;;10.69;20.02
64115;BME280;62188;35.640;139.748;2023-12-22T06:41:59;101398.85;;;10.54;20.25
64115;BME280;62188;35.640;139.748;2023-12-22T06:44:25;101407.39;;;10.68;20.45
64115;BME280;62188;35.640;139.748;2023-12-22T06:46:51;101408.32;;;10.10;21.09
64115;BME280;62188;35.640;139.748;2023-12-22T06:49:16;101411.67;;;9.83;21.49
64115;BME280;62188;35.640;139.748;2023-12-22T06:51:42;101416.02;;;9.66;21.65
64115;BME280;62188;35.640;139.748;2023-12-22T06:54:12;101417.73;;;10.05;21.61
64115;BME280;62188;35.640;139.748;2023-12-22T06:56:35;101418.91;;;10.46;21.36
64115;BME280;62188;35.640;139.748;2023-12-22T06:59:00;101418.78;;;10.09;21.49
64115;BME280;62188;35.640;139.748;2023-12-22T07:01:26;101414.33;;;10.64;20.88
64115;BME280;62188;35.640;139.748;2023-12-22T07:03:51;101413.85;;;10.90;20.45
64115;BME280;62188;35.640;139.748;2023-12-22T07:06:17;101417.59;;;11.17;20.81
64115;BME280;62188;35.640;139.748;2023-12-22T07:08:42;101420.19;;;11.03;20.87
64115;BME280;62188;35.640;139.748;2023-12-22T07:11:07;101424.67;;;10.61;20.42
64115;BME280;62188;35.640;139.748;2023-12-22T07:13:33;101424.96;;;10.57;20.50
64115;BME280;62188;35.640;139.748;2023-12-22T07:16:00;101425.74;;;10.57;20.48
64115;BME280;62188;35.640;139.748;2023-12-22T07:18:24;101428.27;;;10.76;20.46
64115;BME280;62188;35.640;139.748;2023-12-22T07:20:50;101436.33;;;10.71;21.11
64115;BME280;62188;35.640;139.748;2023-12-22T07:23:17;101442.78;;;10.67;21.17
64115;BME280;62188;35.640;139.748;2023-12-22T07:25:41;101441.77;;;10.68;21.18
64115;BME280;62188;35.640;139.748;2023-12-22T07:28:07;101449.47;;;10.68;20.70
64115;BME280;62188;35.640;139.748;2023-12-22T07:30:32;101452.23;;;10.84;20.73
64115;BME280;62188;35.640;139.748;2023-12-22T07:32:58;101457.46;;;10.95;20.92
64115;BME280;62188;35.640;139.748;2023-12-22T07:35:24;101460.18;;;10.66;20.37
64115;BME280;62188;35.640;139.748;2023-12-22T07:37:49;101466.19;;;11.04;20.74
64115;BME280;62188;35.640;139.748;2023-12-22T07:40:15;101467.80;;;11.10;20.61
64115;BME280;62188;35.640;139.748;2023-12-22T07:42:41;101478.36;;;11.29;20.56
64115;BME280;62188;35.640;139.748;2023-12-22T07:45:07;101481.62;;;11.30;20.73
64115;BME280;62188;35.640;139.748;2023-12-22T07:47:32;101483.33;;;11.10;20.63
64115;BME280;62188;35.640;139.748;2023-12-22T07:49:57;101482.15;;;11.16;20.21
64115;BME280;62188;35.640;139.748;2023-12-22T07:52:23;101481.37;;;11.14;20.61
64115;BME280;62188;35.640;139.748;2023-12-22T07:54:49;101485.14;;;11.21;21.12
64115;BME280;62188;35.640;139.748;2023-12-22T07:57:15;101491.15;;;11.26;20.63
64115;BME280;62188;35.640;139.748;2023-12-22T07:59:40;101497.50;;;11.53;20.26
64115;BME280;62188;35.640;139.748;2023-12-22T08:02:06;101497.72;;;11.27;20.08
64115;BME280;62188;35.640;139.748;2023-12-22T08:04:31;101500.66;;;11.04;19.83
64115;BME280;62188;35.640;139.748;2023-12-22T08:06:57;101506.50;;;11.27;19.73
64115;BME280;62188;35.640;139.748;2023-12-22T08:09:24;101513.44;;;11.17;19.99
64115;BME280;62188;35.640;139.748;2023-12-22T08:11:49;101518.07;;;11.23;19.49
64115;BME280;62188;35.640;139.748;2023-12-22T08:14:14;101525.79;;;11.47;19.84
64115;BME280;62188;35.640;139.748;2023-12-22T08:16:40;101529.99;;;11.45;19.46
64115;BME280;62188;35.640;139.748;2023-12-22T08:19:05;101535.21;;;11.65;18.91
64115;BME280;62188;35.640;139.748;2023-12-22T08:21:31;101541.87;;;10.66;18.32
64115;BME280;62188;35.640;139.748;2023-12-22T08:23:57;101547.12;;;10.97;18.31
64115;BME280;62188;35.640;139.748;2023-12-22T08:26:24;101553.04;;;10.80;18.79
64115;BME280;62188;35.640;139.748;2023-12-22T08:28:48;101556.73;;;10.90;18.60
64115;BME280;62188;35.640;139.748;2023-12-22T08:31:17;101555.46;;;11.44;18.70
64115;BME280;62188;35.640;139.748;2023-12-22T08:33:41;101559.81;;;11.27;19.03
64115;BME280;62188;35.640;139.748;2023-12-22T08:36:07;101573.20;;;10.94;18.75
64115;BME280;62188;35.640;139.748;2023-12-22T08:38:31;101581.50;;;10.99;19.05
64115;BME280;62188;35.640;139.748;2023-12-22T08:40:56;101580.42;;;10.00;17.73
64115;BME280;62188;35.640;139.748;2023-12-22T08:43:22;101586.76;;;10.04;16.24
64115;BME280;62188;35.640;139.748;2023-12-22T08:45:47;101594.31;;;9.92;15.53
64115;BME280;62188;35.640;139.748;2023-12-22T08:48:14;101604.64;;;10.07;15.46
64115;BME280;62188;35.640;139.748;2023-12-22T08:50:39;101610.70;;;9.33;15.23
64115;BME280;62188;35.640;139.748;2023-12-22T08:53:05;101616.69;;;9.35;15.28
64115;BME280;62188;35.640;139.748;2023-12-22T08:55:30;101623.08;;;9.51;15.47
64115;BME280;62188;35.640;139.748;2023-12-22T08:57:56;101628.96;;;9.72;15.34
64115;BME280;62188;35.640;139.748;2023-12-22T09:00:23;101628.15;;;9.31;15.01
64115;BME280;62188;35.640;139.748;2023-12-22T09:02:49;101630.65;;;9.62;15.08
64115;BME280;62188;35.640;139.748;2023-12-22T09:05:13;101634.75;;;9.52;15.14
64115;BME280;62188;35.640;139.748;2023-12-22T09:07:38;101639.69;;;9.81;14.89
64115;BME280;62188;35.640;139.748;2023-12-22T09:10:05;101647.12;;;9.97;15.14
64115;BME280;62188;35.640;139.748;2023-12-22T09:12:30;101653.33;;;10.00;15.57
64115;BME280;62188;35.640;139.748;2023-12-22T09:14:58;101656.99;;;9.97;15.73
64115;BME280;62188;35.640;139.748;2023-12-22T09:17:22;101662.83;;;10.07;15.27
64115;BME280;62188;35.640;139.748;2023-12-22T09:19:47;101667.51;;;10.21;15.16
64115;BME280;62188;35.640;139.748;2023-12-22T09:22:13;101673.87;;;10.15;14.92
64115;BME280;62188;35.640;139.748;2023-12-22T09:24:39;101677.37;;;10.01;14.94
64115;BME280;62188;35.640;139.748;2023-12-22T09:27:04;101681.47;;;9.72;15.36
64115;BME280;62188;35.640;139.748;2023-12-22T09:29:30;101685.50;;;9.71;14.86
64115;BME280;62188;35.640;139.748;2023-12-22T09:31:55;101691.62;;;9.94;14.96
64115;BME280;62188;35.640;139.748;2023-12-22T09:34:21;101684.79;;;9.54;14.68
64115;BME280;62188;35.640;139.748;2023-12-22T09:36:47;101693.08;;;9.80;14.42
64115;BME280;62188;35.640;139.748;2023-12-22T09:39:13;101701.66;;;10.09;15.01
64115;BME280;62188;35.640;139.748;2023-12-22T09:41:38;101703.46;;;10.00;15.22
64115;BME280;62188;35.640;139.748;2023-12-22T09:44:05;101707.74;;;10.38;15.32
64115;BME280;62188;35.640;139.748;2023-12-22T09:46:30;101705.96;;;10.22;14.96
64115;BME280;62188;35.640;139.748;2023-12-22T09:48:56;101712.79;;;10.27;15.20
64115;BME280;62188;35.640;139.748;2023-12-22T09:51:20;101718.55;;;10.54;14.59
64115;BME280;62188;35.640;139.748;2023-12-22T09:53:47;101723.00;;;10.42;14.45
64115;BME280;62188;35.640;139.748;2023-12-22T09:56:13;101728.22;;;10.60;14.41
64115;BME280;62188;35.640;139.748;2023-12-22T09:58:38;101733.17;;;10.39;14.75
64115;BME280;62188;35.640;139.748;2023-12-22T10:01:05;101735.14;;;10.14;15.05
64115;BME280;62188;35.640;139.748;2023-12-22T10:03:29;101737.84;;;10.08;14.63
64115;BME280;62188;35.640;139.748;2023-12-22T10:05:55;101737.50;;;9.88;14.16
64115;BME280;62188;35.640;139.748;2023-12-22T10:08:21;101742.75;;;10.20;15.15
64115;BME280;62188;35.640;139.748;2023-12-22T10:10:49;101746.01;;;10.27;15.36
64115;BME280;62188;35.640;139.748;2023-12-22T10:13:13;101749.92;;;10.35;14.85
64115;BME280;62188;35.640;139.748;2023-12-22T10:15:40;101756.87;;;10.39;15.38
64115;BME280;62188;35.640;139.748;2023-12-22T10:18:03;101767.91;;;10.41;15.85
64115;BME280;62188;35.640;139.748;2023-12-22T10:20:30;101774.71;;;10.47;15.43
64115;BME280;62188;35.640;139.748;2023-12-22T10:22:54;101786.43;;;10.06;14.88
64115;BME280;62188;35.640;139.748;2023-12-22T10:25:27;101791.93;;;10.25;14.79
64115;BME280;62188;35.640;139.748;2023-12-22T10:27:45;101796.33;;;10.18;14.62
64115;BME280;62188;35.640;139.748;2023-12-22T10:30:12;101799.41;;;9.99;14.77
64115;BME280;62188;35.640;139.748;2023-12-22T10:32:41;101808.14;;;10.06;14.93
64115;BME280;62188;35.640;139.748;2023-12-22T10:35:05;101813.55;;;9.82;15.13
64115;BME280;62188;35.640;139.748;2023-12-22T10:37:28;101819.82;;;10.03;14.80
64115;BME280;62188;35.640;139.748;2023-12-22T10:39:55;101821.21;;;10.18;14.69
64115;BME280;62188;35.640;139.748;2023-12-22T10:42:20;101830.46;;;9.93;14.53
64115;BME280;62188;35.640;139.748;2023-12-22T10:44:47;101839.37;;;10.14;14.61
64115;BME280;62188;35.640;139.748;2023-12-22T10:47:13;101838.79;;;9.81;14.47
64115;BME280;62188;35.640;139.748;2023-12-22T10:49:40;101843.93;;;9.78;14.70
64115;BME280;62188;35.640;139.748;2023-12-22T10:52:02;101850.19;;;9.60;14.78
64115;BME280;62188;35.640;139.748;2023-12-22T10:54:29;101850.77;;;9.46;14.90
64115;BME280;62188;35.640;139.748;2023-12-22T10:56:59;101855.85;;;9.88;15.19
64115;BME280;62188;35.640;139.748;2023-12-22T10:59:23;101860.98;;;9.36;14.80
64115;BME280;62188;35.640;139.748;2023-12-22T11:01:48;101863.13;;;9.32;15.23
64115;BME280;62188;35.640;139.748;2023-12-22T11:04:17;101868.76;;;8.94;14.86
64115;BME280;62188;35.640;139.748;2023-12-22T11:06:37;101878.44;;;9.19;14.96
64115;BME280;62188;35.640;139.748;2023-12-22T11:11:30;101889.11;;;8.97;15.14
64115;BME280;62188;35.640;139.748;2023-12-22T11:13:54;101900.90;;;8.56;15.41
64115;BME280;62188;35.640;139.748;2023-12-22T11:16:22;101904.99;;;8.77;15.48
64115;BME280;62188;35.640;139.748;2023-12-22T11:18:46;101909.88;;;9.06;16.31
64115;BME280;62188;35.640;139.748;2023-12-22T11:21:11;101914.60;;;8.82;15.77
64115;BME280;62188;35.640;139.748;2023-12-22T11:23:37;101922.46;;;8.37;15.21
64115;BME280;62188;35.640;139.748;2023-12-22T11:26:04;101920.51;;;8.55;15.25
64115;BME280;62188;35.640;139.748;2023-12-22T11:28:28;101927.45;;;8.49;15.52
64115;BME280;62188;35.640;139.748;2023-12-22T11:30:55;101943.91;;;8.65;15.53
64115;BME280;62188;35.640;139.748;2023-12-22T11:33:19;101950.96;;;8.47;16.13
64115;BME280;62188;35.640;139.748;2023-12-22T11:35:46;101948.19;;;8.76;15.86
64115;BME280;62188;35.640;139.748;2023-12-22T11:38:11;101951.54;;;8.88;15.85
64115;BME280;62188;35.640;139.748;2023-12-22T11:40:36;101960.68;;;8.63;16.04
64115;BME280;62188;35.640;139.748;2023-12-22T11:43:04;101964.40;;;8.63;15.66
64115;BME280;62188;35.640;139.748;2023-12-22T11:45:31;101967.03;;;8.76;15.83
64115;BME280;62188;35.640;139.748;2023-12-22T11:47:55;101975.29;;;8.85;15.57
64115;BME280;62188;35.640;139.748;2023-12-22T11:50:28;101976.43;;;8.86;16.23
64115;BME280;62188;35.640;139.748;2023-12-22T11:52:47;101978.94;;;8.82;15.70
64115;BME280;62188;35.640;139.748;2023-12-22T11:55:12;101984.13;;;8.86;16.32
64115;BME280;62188;35.640;139.748;2023-12-22T11:57:37;101982.41;;;8.73;15.96
64115;BME280;62188;35.640;139.748;2023-12-22T12:00:06;101990.58;;;8.80;16.06
64115;BME280;62188;35.640;139.748;2023-12-22T12:02:31;101995.34;;;9.00;16.43
64115;BME280;62188;35.640;139.748;2023-12-22T12:04:56;101994.72;;;8.51;16.68
64115;BME280;62188;35.640;139.748;2023-12-22T12:09:48;102002.30;;;8.08;17.80
64115;BME280;62188;35.640;139.748;2023-12-22T12:12:15;101999.13;;;7.96;18.58
64115;BME280;62188;35.640;139.748;2023-12-22T12:14:42;102006.18;;;8.25;20.60
64115;BME280;62188;35.640;139.748;2023-12-22T12:17:07;102011.73;;;7.95;20.82
64115;BME280;62188;35.640;139.748;2023-12-22T12:19:29;102014.03;;;8.03;22.41
64115;BME280;62188;35.640;139.748;2023-12-22T12:21:55;102017.66;;;8.16;19.34
64115;BME280;62188;35.640;139.748;2023-12-22T12:24:20;102018.61;;;8.25;18.70
64115;BME280;62188;35.640;139.748;2023-12-22T12:26:46;102019.82;;;8.35;18.46
64115;BME280;62188;35.640;139.748;2023-12-22T12:29:10;102019.16;;;8.44;18.38